createdAt,value
2022-11-01T12:18:40.055Z,99.99
2022-11-01T12:19:40.024Z,98.34
2022-11-01T12:20:40.001Z,97.38
2022-11-01T12:21:39.984Z,95.45
2022-11-01T12:22:39.984Z,95.21
2022-11-01T12:23:39.945Z,94.05
2022-11-01T12:24:39.936Z,92.85
2022-11-01T12:25:39.918Z,93.76
2022-11-01T12:26:39.903Z,94.82
2022-11-01T12:27:39.890Z,92.45
2022-11-01T12:28:39.860Z,91.67
2022-11-01T12:29:39.842Z,90.71
2022-11-01T12:30:39.827Z,89.99
2022-11-01T12:31:46.892Z,89.36
2022-11-01T12:32:39.803Z,88.20
2022-11-01T12:33:39.788Z,87.76
2022-11-01T12:34:42.376Z,87.13
2022-11-01T12:35:39.752Z,87.81
2022-11-01T12:36:39.737Z,89.36
2022-11-01T12:37:39.740Z,88.68
2022-11-01T12:38:39.709Z,88.49
2022-11-01T12:39:39.688Z,88.29
2022-11-01T12:40:39.662Z,87.23
2022-11-01T12:41:39.649Z,86.13
2022-11-01T12:42:39.674Z,86.80
2022-11-01T12:43:39.624Z,87.09
2022-11-01T12:44:39.601Z,86.94
2022-11-01T12:45:39.583Z,86.03
2022-11-01T12:46:39.583Z,86.96
2022-11-01T12:47:39.733Z,88.02
2022-11-01T12:48:39.539Z,88.11
2022-11-01T12:49:39.524Z,87.44
2022-11-01T12:50:39.510Z,89.04
2022-11-01T12:51:39.503Z,90.78
2022-11-01T12:52:39.504Z,90.20
2022-11-01T12:53:39.466Z,90.92
2022-11-01T12:54:39.449Z,91.83
2022-11-01T12:55:39.430Z,90.82
2022-11-01T12:56:39.421Z,89.67
2022-11-01T12:57:39.422Z,88.75
2022-11-01T12:58:39.401Z,90.39
2022-11-01T12:59:39.386Z,91.93
2022-11-01T13:00:39.373Z,91.50
2022-11-01T13:01:39.404Z,92.17
2022-11-01T13:02:39.356Z,91.88
2022-11-01T13:03:39.319Z,90.48
2022-11-01T13:04:39.315Z,90.34
2022-11-01T13:05:39.292Z,92.47
2022-11-01T13:06:39.281Z,92.56
2022-11-01T13:07:39.274Z,90.34
2022-11-01T13:08:39.260Z,90.54
2022-11-01T13:09:39.236Z,91.69
2022-11-01T13:10:39.233Z,91.36
2022-11-01T13:11:39.219Z,90.82
2022-11-01T13:12:39.201Z,90.38
2022-11-01T13:13:39.210Z,89.71
2022-11-01T13:14:39.179Z,88.69
2022-11-01T13:15:39.158Z,89.95
2022-11-01T13:16:39.151Z,88.59
2022-11-01T13:17:39.134Z,89.65
2022-11-01T13:18:39.125Z,89.32
2022-11-01T13:19:39.096Z,88.84
2022-11-01T13:20:39.094Z,89.09
2022-11-01T13:21:39.080Z,90.72
2022-11-01T13:22:39.068Z,90.72
2022-11-01T13:23:39.047Z,89.91
2022-11-01T13:24:39.089Z,89.62
2022-11-01T13:25:39.012Z,89.86
2022-11-01T13:26:39.024Z,90.73
2022-11-01T13:27:38.993Z,91.16
2022-11-01T13:28:38.971Z,91.06
2022-11-01T13:29:38.968Z,90.25
2022-11-01T13:30:38.941Z,89.92
2022-11-01T13:31:38.966Z,91.02
2022-11-01T13:32:38.940Z,90.16
2022-11-01T13:33:38.906Z,90.58
2022-11-01T13:34:38.900Z,89.67
2022-11-01T13:35:38.906Z,89.14
2022-11-01T13:36:38.868Z,89.62
2022-11-01T13:37:38.856Z,89.09
2022-11-01T13:38:38.842Z,90.10
2022-11-01T13:39:38.820Z,90.25
2022-11-01T13:40:38.813Z,89.77
2022-11-01T13:41:38.787Z,90.16
2022-11-01T13:42:38.788Z,90.73
2022-11-01T13:43:38.770Z,92.04
2022-11-01T13:44:38.744Z,93.38
2022-11-01T13:45:38.739Z,93.29
2022-11-01T13:46:38.725Z,93.96
2022-11-01T13:47:38.744Z,94.78
2022-11-01T13:48:38.686Z,95.17
2022-11-01T13:49:38.669Z,96.70
2022-11-01T13:50:38.658Z,96.32
2022-11-01T13:51:38.647Z,96.61
2022-11-01T13:52:38.638Z,96.32
2022-11-01T13:53:38.624Z,96.03
2022-11-01T13:54:38.602Z,96.80
2022-11-01T13:55:38.592Z,96.32
2022-11-01T13:56:38.567Z,96.03
2022-11-01T13:57:42.546Z,96.37
2022-11-01T13:58:38.547Z,95.70
2022-11-01T13:59:38.562Z,94.64
2022-11-01T14:00:38.523Z,95.02
2022-11-01T14:01:38.637Z,95.89
2022-11-01T14:02:38.662Z,95.65
2022-11-01T14:03:38.470Z,95.55
2022-11-01T14:04:38.468Z,95.55
2022-11-01T14:05:38.453Z,96.12
